Greenville, DE (19884)

3:42 AM EST on December 22, 2014 (GMT -0500)
Port of Wilmington | Change Station
CLOSE
Current Station
Personal Weather Station
Location: Wilmington, DE
Elevation: 30 ft
Nearby Weather Stations

Elev 30 ft 39.72 °N, 75.53 °W | Updated 59 minutes ago

Clear
Clear
28.3 °F
Feels Like 28 °F
N
0.0
Wind Variable Wind from NW
Gusts 1.0 mph

Today
High -- | Low -- °F
--% Chance of Precip.
Yesterday
High -- | Low -- °F
Precip. -- in
7:20 AM 4:41 PM
New Moon, 0% visible
Pressure 30.35 in
Visibility 6.0 miles
Clouds Clear
Windchill 28 °F
Dew Point 24 °F
Humidity 82%
Rainfall 0.00 in
Snow Depth Not available.
UV 0 out of 12
Pollen .10 out of 12
Air Quality Not available.
Flu Activity Not available.
METAR KILG 220751Z AUTO 33004KT 6SM BR CLR M04/M07 A3035 RMK AO2 SLP277 T10441067

More Conditions Fewer Conditions

Pressure 30.35 in
Visibility 6.0 miles
Clouds Clear
Windchill 28 °F
Dew Point 24 °F
Humidity 82%
Rainfall 0.00 in
Snow Depth Not available.
UV 0 out of 12
Pollen .10 out of 12
Air Quality Not available.
Flu Activity Not available.
METAR KILG 220751Z AUTO 33004KT 6SM BR CLR M04/M07 A3035 RMK AO2 SLP277 T10441067

More Conditions Fewer Conditions

10-Day Weather Forecast

Almanac

Astronomy

Dec. 22, 2014 Rise Set
Actual Time
Civil Twilight
Nautical Twilight
Astronomical Twilight
Moon
Length of Visible Light
Length of Day
Tomorrow will be .
, % of the Moon is Illuminated

Today's Extremes

State Highs State Lows

Community

WunderPhotos

Upload Photos

1,779,580 photos uploaded!

WunderBlogs® & News

Nearby

Air Quality

  Air Quality AQ Index Pollutant
Not available.

Snow Depth

Station Depth Elevation

Earthquake Activity

City Distance Mag. Time & Date
Minimum magnitude displayed is 2.5.

Coastal Water Temperatures

Place Temperature

Nearby Weather Stations